首页
METAR-TAF:

METAR-TAF

机场 :

Alamogordo / Holloman, 新墨西哥州, 美国

纬度: 32-51N, 经度: 106-06W, 海拔: 1248米

当前天气观测

该预报发布于35分钟前的15:55 UTC
静风
温度 32°C
湿度 26%
气压 1019 hPa
能見度: 16.1公里
天空无云

METAR: KHMN 241555Z AUTO 00000KT 10SM CLR 32/10 A3010 RMK AO2 SLP111 T03200101 $

时间: 10:30 (16:30 UTC)

预报

该预报发布于7小时和30分钟前的09:00 UTC
预报有效从24日的 09点(UTC)到 25日的 15点(UTC)
风速6节,风向多变
能见度10公里或以上
少量云层高于6000英尺
多云层高于10000英尺
多云层高于15000英尺
成为
从 24日的 20点(UTC)到 24日的 21点(UTC)
风速10节,风向西转西北,有时为15节阵风
能见度10公里或以上
散云层高于6000英尺
多云层高于10000英尺
多云层高于15000英尺
雷暴
成为
从 25日的 01点(UTC)到 25日的 02点(UTC)
风速6节,风向多变
能见度10公里或以上
散云层高于6000英尺
多云层高于10000英尺
多云层高于15000英尺

TAF: KHMN 240900Z 2409/2515 VRB06KT 9999 FEW060 BKN100 BKN150 QNH3003INS BECMG 2420/2421 30010G15KT 9999 SCT060 BKN100 BKN150 QNH2993INS TS OMTNS BECMG 2501/2502 VRB06KT 9999 SCT060 BKN100 BKN150 QNH2995INS TX37/2422Z TN21/2412Z

超过4000个机场的气象观测和天气预报(METAR&TAF报告)。

可查询的气象台以黄色和红色小点在地图上表示。

将鼠标移到小点上方,可查看气象台名称。

然后点击查看天气观测和预报。

如需切换地图:点击带黑十字的绿色按钮放大地图;点击带横线的绿色按钮缩小地图;或者点击绿色箭头查看邻近地区的地图。


METAR-TAF: